Kecskemet, Hungary

10:41 PM CEST on April 28, 2015 (GMT +0200)
Helvécia | | Change Station
CLOSE
Current Station
Personal Weather Station
Location: Helvcia, BCS-KISKUN MEGYE
Elevation: 387 ft
Nearby Weather Stations

Elev 387 ft 46.84 °N, 19.61 °E | Updated 35 seconds ago

Clear
Clear
48.9 °F
Feels Like 49 °F
N
0.0
Wind Variable Wind from West
Gusts 0.0 mph

Today
High -- | Low -- °F
--% Chance of Precip.
Yesterday
High -- | Low -- °F
Precip. -- in
5:31 AM 7:46 PM
Waxing Gibbous, 76% visible
Pressure 29.80 in
Visibility -9999.0 miles
Clouds
Windchill 49 °F
Dew Point 46 °F
Humidity 91%
Rainfall 0.05 in
Snow Depth Not available.
UV Not available.
Pollen Not available.
Air Quality Not available.
Flu Activity Not available.
METAR LHBP 282030Z 30021G32KT CAVOK 09/05 Q1009 NOSIG

More Conditions Fewer Conditions

Pressure 29.80 in
Visibility -9999.0 miles
Clouds
Windchill 49 °F
Dew Point 46 °F
Humidity 91%
Rainfall 0.05 in
Snow Depth Not available.
UV Not available.
Pollen Not available.
Air Quality Not available.
Flu Activity Not available.
METAR LHBP 282030Z 30021G32KT CAVOK 09/05 Q1009 NOSIG

More Conditions Fewer Conditions

10-Day Weather Forecast

Almanac

Astronomy

Apr. 28, 2015 Rise Set
Actual Time
Civil Twilight
Nautical Twilight
Astronomical Twilight
Moon
Length of Visible Light
Length of Day
Tomorrow will be .
, % of the Moon is Illuminated

Today's Extremes

Country Highs Country Lows

Community

WunderPhotos

Upload Photos

1,817,749 photos uploaded!

WunderBlogs® & News

Nearby

Air Quality

  Air Quality AQ Index Pollutant
Not available.

Snow Depth

Station Depth Elevation

Earthquake Activity

City Distance Mag. Time & Date
Minimum magnitude displayed is 2.5.

Coastal Water Temperatures

Place Temperature

Stations

Nearby Weather Stations

Station Location Temp. Windchill Dew Point Humidity Wind Precip. Elev Updated Type